createdAt,value
2022-08-17T00:00:42.700Z,22.30
2022-08-17T00:03:17.376Z,22.29
2022-08-17T00:05:45.069Z,22.25
2022-08-17T00:08:14.871Z,22.27
2022-08-17T00:10:44.518Z,22.25
2022-08-17T00:13:25.814Z,22.28
2022-08-17T00:15:58.771Z,22.22
2022-08-17T00:18:53.763Z,22.26
2022-08-17T00:21:25.127Z,22.21
2022-08-17T00:23:54.013Z,22.19
2022-08-17T00:26:44.188Z,22.19
2022-08-17T00:29:19.382Z,22.19
2022-08-17T00:31:48.582Z,22.15
2022-08-17T00:34:16.464Z,22.11
2022-08-17T00:36:43.995Z,22.06
2022-08-17T00:39:11.564Z,22.04
2022-08-17T00:41:42.760Z,22.00
2022-08-17T00:44:12.406Z,21.96
2022-08-17T00:46:42.307Z,21.93
2022-08-17T00:49:11.733Z,21.94
2022-08-17T00:51:47.876Z,21.94
2022-08-17T00:54:26.411Z,21.90
2022-08-17T00:57:02.188Z,21.86
2022-08-17T00:59:36.301Z,21.84
2022-08-17T01:02:05.169Z,21.78
2022-08-17T01:04:33.657Z,21.78
2022-08-17T01:07:03.526Z,21.71
2022-08-17T01:09:32.142Z,21.68
2022-08-17T01:12:00.270Z,21.69
2022-08-17T01:14:27.934Z,21.67
2022-08-17T01:16:56.294Z,21.61
2022-08-17T01:19:34.437Z,21.63
2022-08-17T01:22:10.956Z,21.67
2022-08-17T01:24:42.519Z,21.60
2022-08-17T01:27:11.315Z,21.65
2022-08-17T01:29:41.195Z,21.61
2022-08-17T01:32:09.427Z,21.58
2022-08-17T01:34:43.720Z,21.58
2022-08-17T01:37:20.414Z,21.56
2022-08-17T01:39:52.661Z,21.59
2022-08-17T01:42:25.522Z,21.55
2022-08-17T01:44:57.082Z,21.55
2022-08-17T01:47:31.096Z,21.63
2022-08-17T01:49:59.026Z,21.61
2022-08-17T01:52:26.747Z,21.59
2022-08-17T01:54:55.000Z,21.54
2022-08-17T01:57:22.559Z,21.52
2022-08-17T01:59:50.098Z,21.48
2022-08-17T02:02:30.874Z,21.54
2022-08-17T02:04:59.805Z,21.44
2022-08-17T02:07:27.777Z,21.42
2022-08-17T02:09:55.303Z,21.41
2022-08-17T02:12:37.692Z,21.41
2022-08-17T02:15:09.984Z,21.33
2022-08-17T02:17:37.644Z,21.36
2022-08-17T02:20:05.864Z,21.31
2022-08-17T02:22:33.825Z,21.33
2022-08-17T02:25:03.466Z,21.31
2022-08-17T02:27:31.767Z,21.30
2022-08-17T02:29:59.391Z,21.25
2022-08-17T02:32:28.602Z,21.31
2022-08-17T02:34:58.089Z,21.28
2022-08-17T02:37:27.713Z,21.31
2022-08-17T02:39:58.857Z,21.27
2022-08-17T02:42:33.999Z,21.33
2022-08-17T02:45:03.325Z,21.33
2022-08-17T02:47:31.459Z,21.33
2022-08-17T02:49:58.973Z,21.29
2022-08-17T02:52:42.323Z,21.32
2022-08-17T02:55:18.464Z,21.32
2022-08-17T02:57:46.623Z,21.34
2022-08-17T03:00:30.015Z,21.35
2022-08-17T03:02:57.657Z,21.41
2022-08-17T03:05:27.411Z,21.42
2022-08-17T03:07:55.517Z,21.46
2022-08-17T03:10:24.829Z,21.52
2022-08-17T03:12:54.197Z,21.59
2022-08-17T03:15:27.912Z,21.63
2022-08-17T03:17:56.834Z,21.72
2022-08-17T03:20:26.700Z,21.76
2022-08-17T03:22:56.626Z,21.80
2022-08-17T03:25:37.344Z,21.86
2022-08-17T03:28:06.426Z,21.89
2022-08-17T03:30:34.937Z,21.97
2022-08-17T03:33:04.952Z,22.00
2022-08-17T03:35:34.950Z,22.05
2022-08-17T03:38:02.687Z,22.15
2022-08-17T03:40:55.920Z,22.24
2022-08-17T03:43:19.996Z,22.31
2022-08-17T03:46:06.340Z,22.32
2022-08-17T03:49:12.593Z,22.42
2022-08-17T03:52:00.255Z,22.48
2022-08-17T03:54:46.267Z,22.56
2022-08-17T03:57:13.997Z,22.66
2022-08-17T03:59:45.131Z,22.73
2022-08-17T04:02:18.734Z,22.82
2022-08-17T04:04:46.706Z,22.85
2022-08-17T04:07:14.204Z,22.92
2022-08-17T04:09:42.917Z,22.93
2022-08-17T04:12:10.396Z,22.98
2022-08-17T04:14:51.571Z,23.10
2022-08-17T04:17:21.760Z,23.11
2022-08-17T04:19:49.408Z,23.18
2022-08-17T04:22:30.894Z,23.25
2022-08-17T04:25:14.242Z,23.29
2022-08-17T04:27:42.004Z,23.44
2022-08-17T04:30:10.206Z,23.53
2022-08-17T04:33:08.672Z,23.80
2022-08-17T04:35:39.930Z,23.88
2022-08-17T04:38:10.181Z,24.06
2022-08-17T04:40:56.885Z,24.20
2022-08-17T04:43:26.461Z,24.33
2022-08-17T04:46:00.511Z,24.44
2022-08-17T04:48:36.052Z,24.45
2022-08-17T04:51:07.640Z,24.60
2022-08-17T04:53:36.986Z,24.67
2022-08-17T04:56:05.498Z,24.62
2022-08-17T04:58:33.082Z,24.74
2022-08-17T05:01:01.573Z,24.72
2022-08-17T05:03:29.314Z,24.74
2022-08-17T05:05:57.045Z,24.72
2022-08-17T05:08:24.536Z,24.72
2022-08-17T05:10:52.297Z,24.86
2022-08-17T05:13:25.412Z,24.98
2022-08-17T05:15:57.136Z,25.06
2022-08-17T05:18:25.079Z,25.16
2022-08-17T05:20:53.542Z,25.16
2022-08-17T05:23:23.587Z,25.24
2022-08-17T05:25:53.098Z,25.42
2022-08-17T05:28:27.337Z,25.57
2022-08-17T05:31:01.955Z,25.74
2022-08-17T05:33:36.689Z,25.92
2022-08-17T05:36:06.788Z,25.95
2022-08-17T05:38:34.820Z,26.13
2022-08-17T05:41:05.423Z,26.24
2022-08-17T05:43:36.949Z,26.30
2022-08-17T05:46:19.836Z,26.57
2022-08-17T05:48:54.275Z,26.62
2022-08-17T05:51:30.849Z,26.71
2022-08-17T05:54:24.325Z,27.05
2022-08-17T05:57:00.473Z,27.04
2022-08-17T06:00:06.408Z,27.20
2022-08-17T06:02:47.988Z,27.30
2022-08-17T06:05:48.360Z,27.64
2022-08-17T06:08:18.916Z,27.88
2022-08-17T06:10:56.987Z,28.02
2022-08-17T06:13:51.761Z,28.27
2022-08-17T06:16:33.202Z,28.30
2022-08-17T06:19:22.952Z,28.59
2022-08-17T06:21:54.998Z,28.63
2022-08-17T06:24:34.378Z,28.84
2022-08-17T06:27:25.371Z,28.90
2022-08-17T06:30:16.890Z,29.01
2022-08-17T06:32:46.535Z,28.99
2022-08-17T06:35:19.172Z,29.15
2022-08-17T06:38:00.414Z,29.49
2022-08-17T06:40:49.144Z,29.84
2022-08-17T06:43:34.520Z,30.11
2022-08-17T06:46:14.175Z,30.36
2022-08-17T06:49:09.178Z,30.58
2022-08-17T06:51:41.628Z,30.64
2022-08-17T06:54:38.977Z,31.20
2022-08-17T06:57:22.495Z,31.61
2022-08-17T06:59:56.731Z,31.76
2022-08-17T07:03:01.662Z,32.10
2022-08-17T07:05:38.845Z,32.19
2022-08-17T07:08:38.450Z,32.55
2022-08-17T07:11:13.829Z,32.69
2022-08-17T07:14:17.014Z,32.95
2022-08-17T07:16:50.629Z,32.73
2022-08-17T07:19:22.721Z,32.64
2022-08-17T07:22:08.782Z,33.04
2022-08-17T07:24:51.128Z,33.55
2022-08-17T07:27:38.848Z,33.89
2022-08-17T07:30:12.442Z,34.04
2022-08-17T07:33:00.167Z,34.31
2022-08-17T07:35:37.585Z,34.68
2022-08-17T07:38:25.185Z,34.77
2022-08-17T07:40:57.787Z,35.22
2022-08-17T07:43:31.152Z,35.34
2022-08-17T07:46:25.242Z,35.80
2022-08-17T07:48:56.122Z,36.11
2022-08-17T07:51:27.166Z,36.22
2022-08-17T07:54:13.062Z,36.52
2022-08-17T07:56:55.946Z,37.12
2022-08-17T07:59:33.542Z,37.58
2022-08-17T08:02:19.832Z,37.92
2022-08-17T08:05:01.044Z,38.16
2022-08-17T08:07:37.537Z,38.26
2022-08-17T08:10:28.074Z,38.38
2022-08-17T08:13:21.702Z,38.65
2022-08-17T08:15:54.208Z,38.53
2022-08-17T08:18:55.317Z,39.02
2022-08-17T08:22:00.945Z,39.55
2022-08-17T08:25:15.187Z,40.11
2022-08-17T08:27:57.756Z,39.81
2022-08-17T08:30:25.369Z,39.83
2022-08-17T08:33:04.986Z,40.14
2022-08-17T08:35:54.015Z,40.39
2022-08-17T08:38:37.690Z,40.79
2022-08-17T08:41:46.159Z,41.15
2022-08-17T08:44:59.900Z,41.34
2022-08-17T08:47:19.397Z,41.22
2022-08-17T08:50:08.472Z,41.35
2022-08-17T08:52:53.443Z,41.46
2022-08-17T08:55:36.912Z,41.46
2022-08-17T08:58:31.991Z,41.65
2022-08-17T09:01:18.342Z,41.61
2022-08-17T09:03:53.744Z,41.53
2022-08-17T09:06:58.037Z,41.76
2022-08-17T09:09:34.626Z,41.54
2022-08-17T09:12:21.379Z,42.39
2022-08-17T09:15:01.506Z,42.51
2022-08-17T09:18:03.708Z,42.77
2022-08-17T09:20:50.152Z,43.04
2022-08-17T09:23:44.918Z,43.68
2022-08-17T09:26:22.936Z,43.83
2022-08-17T09:28:53.413Z,44.06
2022-08-17T09:31:48.754Z,44.30
2022-08-17T09:34:22.298Z,44.25
2022-08-17T09:37:15.914Z,44.77
2022-08-17T09:39:55.437Z,44.76
2022-08-17T09:42:23.035Z,45.14
2022-08-17T09:45:12.143Z,44.96
2022-08-17T09:47:56.739Z,44.85
2022-08-17T09:51:05.172Z,44.77
2022-08-17T09:53:31.886Z,44.68
2022-08-17T09:56:06.861Z,45.07
2022-08-17T09:58:40.767Z,45.11
2022-08-17T10:01:38.238Z,44.63
2022-08-17T10:04:12.040Z,43.69
2022-08-17T10:06:50.388Z,44.21
2022-08-17T10:09:30.727Z,44.57
2022-08-17T10:12:20.346Z,44.81
2022-08-17T10:15:26.081Z,45.12
2022-08-17T10:18:15.163Z,45.49
2022-08-17T10:21:25.594Z,45.70
2022-08-17T10:24:28.455Z,46.33
2022-08-17T10:27:00.306Z,46.37
2022-08-17T10:29:49.919Z,46.39
2022-08-17T10:32:23.254Z,46.37
2022-08-17T10:35:07.640Z,46.28
2022-08-17T10:37:44.453Z,44.83
2022-08-17T10:40:26.399Z,44.41
2022-08-17T10:43:12.387Z,44.09
2022-08-17T10:45:51.047Z,42.48
2022-08-17T10:48:39.696Z,43.03
2022-08-17T10:51:34.192Z,43.69
2022-08-17T10:54:02.342Z,44.80
2022-08-17T10:56:45.602Z,45.88
2022-08-17T10:59:37.413Z,47.01
2022-08-17T11:02:05.032Z,47.26
2022-08-17T11:04:57.030Z,47.74
2022-08-17T11:07:58.703Z,48.58
2022-08-17T11:10:51.952Z,48.38
2022-08-17T11:13:23.265Z,48.10
2022-08-17T11:16:08.952Z,48.21
2022-08-17T11:19:11.056Z,49.02
2022-08-17T11:22:03.365Z,48.70
2022-08-17T11:24:53.965Z,48.84
2022-08-17T11:27:34.275Z,49.02
2022-08-17T11:30:07.345Z,48.88
2022-08-17T11:32:52.916Z,48.76
2022-08-17T11:35:23.209Z,48.51
2022-08-17T11:38:16.822Z,48.33
2022-08-17T11:41:11.519Z,47.99
2022-08-17T11:44:07.264Z,48.41
2022-08-17T11:47:14.300Z,48.69
2022-08-17T11:50:00.042Z,48.66
2022-08-17T11:52:46.764Z,48.60
2022-08-17T11:55:39.363Z,48.91
2022-08-17T11:58:34.318Z,48.60
2022-08-17T12:01:07.483Z,48.03
2022-08-17T12:03:34.982Z,47.75
2022-08-17T12:06:30.989Z,48.17
2022-08-17T12:09:11.084Z,48.06
2022-08-17T12:11:55.624Z,47.69
2022-08-17T12:15:09.141Z,46.17
2022-08-17T12:17:41.471Z,43.30
2022-08-17T12:20:12.796Z,41.00
2022-08-17T12:22:56.592Z,41.11
2022-08-17T12:25:37.636Z,42.82
2022-08-17T12:28:20.829Z,44.16
2022-08-17T12:30:52.164Z,45.14
2022-08-17T12:33:25.546Z,45.70
2022-08-17T12:36:05.719Z,46.11
2022-08-17T12:38:36.992Z,46.06
2022-08-17T12:41:26.256Z,46.20
2022-08-17T12:44:03.822Z,46.37
2022-08-17T12:46:35.072Z,45.91
2022-08-17T12:49:26.519Z,45.89
2022-08-17T12:52:02.083Z,45.37
2022-08-17T12:54:51.623Z,44.77
2022-08-17T12:57:32.871Z,43.85
2022-08-17T13:00:25.976Z,42.11
2022-08-17T13:03:18.126Z,40.83
2022-08-17T13:05:54.927Z,40.44
2022-08-17T13:08:38.899Z,40.69
2022-08-17T13:11:16.218Z,40.88
2022-08-17T13:13:56.186Z,41.35
2022-08-17T13:16:30.907Z,40.48
2022-08-17T13:19:08.983Z,39.34
2022-08-17T13:21:43.978Z,37.86
2022-08-17T13:24:11.562Z,36.74
2022-08-17T13:26:44.464Z,35.65
2022-08-17T13:29:24.184Z,34.99
2022-08-17T13:32:13.167Z,34.37
2022-08-17T13:35:15.085Z,33.80
2022-08-17T13:38:06.716Z,33.46
2022-08-17T13:40:41.863Z,32.87
2022-08-17T13:43:10.830Z,32.57
2022-08-17T13:45:50.804Z,32.36
2022-08-17T13:48:28.846Z,32.09
2022-08-17T13:50:56.437Z,31.87
2022-08-17T13:53:54.593Z,31.67
2022-08-17T13:56:38.755Z,31.55
2022-08-17T13:59:14.177Z,31.30
2022-08-17T14:01:45.879Z,31.14
2022-08-17T14:04:24.859Z,31.05
2022-08-17T14:07:11.610Z,30.92
2022-08-17T14:09:50.341Z,30.77
2022-08-17T14:12:25.078Z,30.61
2022-08-17T14:14:55.207Z,30.54
2022-08-17T14:17:24.138Z,30.48
2022-08-17T14:19:51.810Z,30.41
2022-08-17T14:22:25.826Z,30.33
2022-08-17T14:24:53.879Z,30.25
2022-08-17T14:27:21.894Z,30.21
2022-08-17T14:29:49.459Z,30.11
2022-08-17T14:32:21.514Z,29.98
2022-08-17T14:34:49.776Z,29.94
2022-08-17T14:37:21.503Z,29.85
2022-08-17T14:39:49.008Z,29.80
2022-08-17T14:42:17.720Z,29.74
2022-08-17T14:44:45.210Z,29.69
2022-08-17T14:47:15.839Z,29.60
2022-08-17T14:49:48.350Z,29.51
2022-08-17T14:52:21.911Z,29.45
2022-08-17T14:54:51.499Z,29.35
2022-08-17T14:57:24.862Z,29.29
2022-08-17T15:00:02.556Z,29.19
2022-08-17T15:02:48.536Z,29.18
2022-08-17T15:05:17.491Z,29.08
2022-08-17T15:07:45.065Z,29.04
2022-08-17T15:10:14.700Z,28.96
2022-08-17T15:12:42.640Z,28.97
2022-08-17T15:15:14.071Z,28.92
2022-08-17T15:17:43.687Z,28.89
2022-08-17T15:20:33.903Z,28.93
2022-08-17T15:23:01.537Z,28.80
2022-08-17T15:25:31.985Z,28.81
2022-08-17T15:28:00.442Z,28.79
2022-08-17T15:30:30.255Z,28.73
2022-08-17T15:32:59.141Z,28.69
2022-08-17T15:35:32.085Z,28.66
2022-08-17T15:38:09.843Z,28.69
2022-08-17T15:40:44.837Z,28.63
2022-08-17T15:43:28.739Z,28.64
2022-08-17T15:46:12.485Z,28.62
2022-08-17T15:48:42.678Z,28.51
2022-08-17T15:51:21.509Z,28.53
2022-08-17T15:53:52.245Z,28.43
2022-08-17T15:56:20.838Z,28.40
2022-08-17T15:58:49.384Z,28.34
2022-08-17T16:02:33.638Z,28.32
2022-08-17T16:04:26.904Z,28.24
2022-08-17T16:06:57.783Z,28.23
2022-08-17T16:09:25.309Z,28.18
2022-08-17T16:11:56.147Z,28.13
2022-08-17T16:14:33.597Z,28.06
2022-08-17T16:17:04.696Z,28.00
2022-08-17T16:19:33.592Z,27.91
2022-08-17T16:22:01.258Z,27.91
2022-08-17T16:24:29.735Z,27.82
2022-08-17T16:26:59.895Z,27.79
2022-08-17T16:29:27.860Z,27.75
2022-08-17T16:31:56.637Z,27.71
2022-08-17T16:34:24.702Z,27.67
2022-08-17T16:36:56.006Z,27.60
2022-08-17T16:39:29.353Z,27.58
2022-08-17T16:41:57.693Z,27.54
2022-08-17T16:44:30.711Z,27.49
2022-08-17T16:46:59.968Z,27.50
2022-08-17T16:49:36.785Z,27.43
2022-08-17T16:52:10.551Z,27.37
2022-08-17T16:54:46.274Z,27.34
2022-08-17T16:57:15.785Z,27.29
2022-08-17T16:59:48.020Z,27.29
2022-08-17T17:02:25.129Z,27.22
2022-08-17T17:05:22.301Z,27.22
2022-08-17T17:08:09.167Z,27.16
2022-08-17T17:10:44.987Z,27.09
2022-08-17T17:13:47.319Z,27.04
2022-08-17T17:16:24.116Z,26.97
2022-08-17T17:19:41.377Z,27.00
2022-08-17T17:22:30.418Z,26.90
2022-08-17T17:25:22.964Z,26.85
2022-08-17T17:28:01.820Z,26.78
2022-08-17T17:30:42.837Z,26.78
2022-08-17T17:33:22.595Z,26.78
2022-08-17T17:36:08.699Z,26.74
2022-08-17T17:39:08.410Z,26.69
2022-08-17T17:41:48.324Z,26.59
2022-08-17T17:44:25.233Z,26.55
2022-08-17T17:46:57.342Z,26.53
2022-08-17T17:49:36.128Z,26.52
2022-08-17T17:52:16.888Z,26.50
2022-08-17T17:54:59.697Z,26.48
2022-08-17T17:57:45.195Z,26.45
2022-08-17T18:00:22.067Z,26.36
2022-08-17T18:03:05.296Z,26.37
2022-08-17T18:06:17.592Z,26.32
2022-08-17T18:08:48.102Z,26.20
2022-08-17T18:11:24.949Z,26.21
2022-08-17T18:14:32.733Z,26.20
2022-08-17T18:17:01.321Z,26.13
2022-08-17T18:19:30.998Z,26.13
2022-08-17T18:22:08.114Z,26.08
2022-08-17T18:24:49.704Z,26.11
2022-08-17T18:27:38.307Z,26.12
2022-08-17T18:30:14.580Z,26.09
2022-08-17T18:32:46.485Z,26.04
2022-08-17T18:35:14.455Z,26.00
2022-08-17T18:37:48.786Z,25.99
2022-08-17T18:40:16.435Z,25.95
2022-08-17T18:42:45.895Z,25.90
2022-08-17T18:45:30.560Z,25.90
2022-08-17T18:47:58.113Z,25.87
2022-08-17T18:50:39.790Z,25.86
2022-08-17T18:53:37.039Z,25.88
2022-08-17T18:56:31.236Z,25.86
2022-08-17T18:59:04.646Z,25.83
2022-08-17T19:02:02.017Z,25.83
2022-08-17T19:04:37.237Z,25.76
2022-08-17T19:07:25.164Z,25.77
2022-08-17T19:10:23.664Z,25.77
2022-08-17T19:13:12.426Z,25.75
2022-08-17T19:16:26.386Z,25.70
2022-08-17T19:19:09.688Z,25.68
2022-08-17T19:21:48.187Z,25.71
2022-08-17T19:24:20.521Z,25.68
2022-08-17T19:27:02.684Z,25.67
2022-08-17T19:30:07.906Z,25.69
2022-08-17T19:32:36.463Z,25.65
2022-08-17T19:35:07.569Z,25.64
2022-08-17T19:37:53.632Z,25.63
2022-08-17T19:40:54.037Z,25.63
2022-08-17T19:43:29.273Z,25.62
2022-08-17T19:46:26.284Z,25.60
2022-08-17T19:49:05.995Z,25.59
2022-08-17T19:51:49.071Z,25.57
2022-08-17T19:54:37.523Z,25.55
2022-08-17T19:57:21.115Z,25.48
2022-08-17T20:00:20.289Z,25.48
2022-08-17T20:03:16.586Z,25.40
2022-08-17T20:06:11.921Z,25.31
2022-08-17T20:09:00.512Z,25.32
2022-08-17T20:11:41.842Z,25.27
2022-08-17T20:14:20.507Z,25.16
2022-08-17T20:16:50.534Z,25.14
2022-08-17T20:19:52.024Z,25.15
2022-08-17T20:22:30.516Z,25.15
2022-08-17T20:25:08.176Z,25.17
2022-08-17T20:28:07.206Z,25.12
2022-08-17T20:30:40.954Z,25.13
2022-08-17T20:33:37.173Z,25.13
2022-08-17T20:36:18.743Z,25.08
2022-08-17T20:38:52.117Z,25.05
2022-08-17T20:41:25.427Z,25.03
2022-08-17T20:43:59.153Z,25.01
2022-08-17T20:46:35.518Z,24.96
2022-08-17T20:49:09.010Z,24.95
2022-08-17T20:52:00.545Z,24.90
2022-08-17T20:54:51.945Z,24.92
2022-08-17T20:57:31.753Z,24.86
2022-08-17T21:00:15.284Z,24.82
2022-08-17T21:02:49.672Z,24.78
2022-08-17T21:05:57.213Z,24.76
2022-08-17T21:08:32.325Z,24.71
2022-08-17T21:11:21.079Z,24.65
2022-08-17T21:14:14.243Z,24.61
2022-08-17T21:17:03.399Z,24.60
2022-08-17T21:20:11.824Z,24.56
2022-08-17T21:22:40.723Z,24.48
2022-08-17T21:25:14.089Z,24.36
2022-08-17T21:28:03.245Z,24.40
2022-08-17T21:30:33.887Z,24.37
2022-08-17T21:33:18.520Z,24.30
2022-08-17T21:35:53.376Z,24.27
2022-08-17T21:38:53.395Z,24.23
2022-08-17T21:41:31.120Z,24.11
2022-08-17T21:44:31.666Z,24.18
2022-08-17T21:47:25.338Z,24.16
2022-08-17T21:49:54.276Z,24.05
2022-08-17T21:52:27.390Z,23.97
2022-08-17T21:54:58.349Z,23.97
2022-08-17T21:57:30.206Z,23.97
2022-08-17T22:00:01.497Z,23.95
2022-08-17T22:02:37.672Z,23.93
2022-08-17T22:05:12.413Z,23.87
2022-08-17T22:07:50.651Z,23.83
2022-08-17T22:10:42.049Z,23.85
2022-08-17T22:13:17.685Z,23.78
2022-08-17T22:15:48.856Z,23.77
2022-08-17T22:18:28.907Z,23.77
2022-08-17T22:20:58.306Z,23.69
2022-08-17T22:23:49.904Z,23.70
2022-08-17T22:26:19.754Z,23.66
2022-08-17T22:28:50.162Z,23.55
2022-08-17T22:31:23.534Z,23.57
2022-08-17T22:33:51.077Z,23.56
2022-08-17T22:36:33.689Z,23.54
2022-08-17T22:39:22.715Z,23.51
2022-08-17T22:41:54.397Z,23.30
2022-08-17T22:44:37.886Z,23.39
2022-08-17T22:47:40.968Z,23.35
2022-08-17T22:50:28.111Z,23.26
2022-08-17T22:53:18.232Z,23.14
2022-08-17T22:56:17.245Z,23.14
2022-08-17T22:59:17.691Z,23.03
2022-08-17T23:02:06.624Z,23.04
2022-08-17T23:04:37.340Z,22.91
2022-08-17T23:07:06.853Z,22.93
2022-08-17T23:09:35.985Z,22.84
2022-08-17T23:12:11.743Z,22.89
2022-08-17T23:14:45.497Z,22.89
2022-08-17T23:17:13.529Z,22.86
2022-08-17T23:19:41.116Z,22.79
2022-08-17T23:22:10.497Z,22.83
2022-08-17T23:24:45.501Z,22.69
2022-08-17T23:27:13.224Z,22.69
2022-08-17T23:29:42.245Z,22.69
2022-08-17T23:32:14.728Z,22.71
2022-08-17T23:34:44.490Z,22.70
2022-08-17T23:37:12.467Z,22.71
2022-08-17T23:39:40.429Z,22.64
2022-08-17T23:42:11.108Z,22.67
2022-08-17T23:44:40.159Z,22.69
2022-08-17T23:47:08.151Z,22.71
2022-08-17T23:49:36.498Z,22.65
2022-08-17T23:52:11.433Z,22.73
2022-08-17T23:54:46.634Z,22.65
2022-08-17T23:57:18.499Z,22.63
2022-08-17T23:59:47.032Z,22.53
